Time;durP1;ratioP1;P1;durP2;ratioP2;P2;SDS_P1;SDS_P2;PMS_P1;PMS_P2;Temp;Humidity;BMP_temperature;BMP_pressure;BME280_temperature;BME280_humidity;BME280_pressure;Samples;Min_cycle;Max_cycle;Signal;HPM_P1;HPM_P2
2023/09/22 00:02:25;;;;;;;;;;;18.40;89.30;;;;;;5066928;28;19933;-78
2023/09/22 00:04:52;;;;;;;;;;;18.40;89.30;;;;;;5066764;28;19971;-79
2023/09/22 00:07:19;;;;;;;;;;;18.40;89.30;;;;;;5061317;28;20437;-81
2023/09/22 00:09:46;;;;;;;;;;;18.40;89.30;;;;;;5076801;28;19928;-78
2023/09/22 00:12:14;;;;;;;;;;;18.40;89.20;;;;;;5062900;28;19928;-78
2023/09/22 00:14:40;;;;;;;;;;;18.30;89.10;;;;;;5058266;28;19935;-80
2023/09/22 00:17:07;;;;;;;;;;;18.40;89.20;;;;;;5069688;28;19982;-79
2023/09/22 00:19:35;;;;;;;;;;;18.30;89.10;;;;;;5062696;28;19935;-79
2023/09/22 00:22:03;;;;;;;;;;;18.30;89.10;;;;;;5073748;28;19943;-78
2023/09/22 00:24:31;;;;;;;;;;;18.30;89.00;;;;;;5066654;28;19928;-80
2023/09/22 00:26:58;;;;;;;;;;;18.30;89.00;;;;;;5067980;28;20573;-80
2023/09/22 00:29:26;;;;;;;;;;;18.30;89.10;;;;;;5069384;28;19929;-78
2023/09/22 00:31:53;;;;;;;;;;;18.20;89.00;;;;;;5094437;28;19935;-79
2023/09/22 00:34:19;;;;;;;;;;;18.20;89.00;;;;;;5065425;28;19942;-80
2023/09/22 00:36:48;;;;;;;;;;;18.30;89.00;;;;;;5062514;28;19936;-79
2023/09/22 00:39:15;;;;;;;;;;;18.20;89.00;;;;;;5046726;28;20015;-78
2023/09/22 00:41:44;;;;;;;;;;;18.20;88.90;;;;;;5060727;28;19935;-80
2023/09/22 00:44:11;;;;;;;;;;;18.20;88.90;;;;;;5044290;28;19935;-79
2023/09/22 00:46:39;;;;;;;;;;;18.20;88.90;;;;;;5067688;28;19928;-80
2023/09/22 00:49:07;;;;;;;;;;;18.20;88.90;;;;;;5061294;28;19928;-79
2023/09/22 00:51:34;;;;;;;;;;;18.20;88.80;;;;;;5040183;28;20473;-79
2023/09/22 00:54:01;;;;;;;;;;;18.20;88.80;;;;;;5064398;28;19928;-80
2023/09/22 00:56:28;;;;;;;;;;;18.20;88.90;;;;;;5045637;28;19967;-80
2023/09/22 00:58:55;;;;;;;;;;;18.20;88.90;;;;;;5046629;28;20420;-79
2023/09/22 01:01:23;;;;;;;;;;;18.10;88.80;;;;;;5064157;28;20019;-79
2023/09/22 01:03:53;;;;;;;;;;;18.10;88.80;;;;;;5065174;28;19939;-79
2023/09/22 01:06:20;;;;;;;;;;;18.10;88.80;;;;;;5061779;28;19932;-79
2023/09/22 01:08:46;;;;;;;;;;;18.10;88.80;;;;;;5067651;28;19928;-79
2023/09/22 01:11:13;;;;;;;;;;;18.10;88.90;;;;;;5061879;28;19939;-79
2023/09/22 01:13:42;;;;;;;;;;;18.10;88.80;;;;;;5052024;28;20307;-80
2023/09/22 01:16:08;;;;;;;;;;;18.10;88.80;;;;;;5066414;28;19928;-79
2023/09/22 01:18:35;;;;;;;;;;;18.10;88.80;;;;;;5065676;28;19936;-78
2023/09/22 01:21:03;;;;;;;;;;;18.10;88.80;;;;;;5065390;28;19932;-80
2023/09/22 01:23:31;;;;;;;;;;;18.00;88.80;;;;;;5066174;28;19960;-80
2023/09/22 01:25:58;;;;;;;;;;;18.10;88.80;;;;;;5045186;28;20015;-79
2023/09/22 01:28:25;;;;;;;;;;;18.00;88.80;;;;;;5047848;28;19928;-80
2023/09/22 01:30:52;;;;;;;;;;;18.00;88.80;;;;;;5075541;28;19928;-78
2023/09/22 01:33:19;;;;;;;;;;;18.00;88.80;;;;;;5068919;28;19928;-80
2023/09/22 01:35:45;;;;;;;;;;;18.00;88.90;;;;;;5067948;28;20111;-79
2023/09/22 01:38:13;;;;;;;;;;;18.00;88.90;;;;;;5067903;28;19936;-79
2023/09/22 01:40:42;;;;;;;;;;;18.00;88.90;;;;;;5061501;28;19939;-79
2023/09/22 01:43:11;;;;;;;;;;;18.00;88.90;;;;;;5063978;28;19950;-80
2023/09/22 01:45:39;;;;;;;;;;;17.90;89.00;;;;;;5062802;28;19935;-79
2023/09/22 01:48:07;;;;;;;;;;;17.90;88.90;;;;;;5049018;28;20674;-80
2023/09/22 01:50:35;;;;;;;;;;;17.90;88.90;;;;;;5066220;28;19928;-79
2023/09/22 01:53:02;;;;;;;;;;;17.90;88.90;;;;;;5067062;28;19928;-79
2023/09/22 01:55:29;;;;;;;;;;;17.90;88.80;;;;;;5062276;28;19933;-80
2023/09/22 01:57:57;;;;;;;;;;;17.90;88.90;;;;;;5065560;28;19935;-78
2023/09/22 02:00:24;;;;;;;;;;;17.90;88.90;;;;;;5060228;28;19933;-79
2023/09/22 02:02:51;;;;;;;;;;;17.80;88.90;;;;;;5066832;28;20023;-79
2023/09/22 02:05:18;;;;;;;;;;;17.80;88.90;;;;;;5046469;28;20002;-80
2023/09/22 02:07:44;;;;;;;;;;;17.80;88.90;;;;;;5052870;28;19928;-79
2023/09/22 02:10:13;;;;;;;;;;;17.70;88.80;;;;;;5067711;28;19933;-80
2023/09/22 02:12:40;;;;;;;;;;;17.80;88.90;;;;;;5069750;28;20322;-79
2023/09/22 02:15:10;;;;;;;;;;;17.80;88.90;;;;;;5044526;28;19978;-78
2023/09/22 02:17:37;;;;;;;;;;;17.70;88.90;;;;;;5071462;28;19968;-78
2023/09/22 02:20:07;;;;;;;;;;;17.80;88.90;;;;;;5065107;28;19968;-80
2023/09/22 02:22:35;;;;;;;;;;;17.70;88.90;;;;;;5066202;28;19936;-80
2023/09/22 02:25:02;;;;;;;;;;;17.70;88.90;;;;;;5063615;28;19986;-80
2023/09/22 02:27:28;;;;;;;;;;;17.70;88.90;;;;;;5043624;28;20381;-79
2023/09/22 02:29:55;;;;;;;;;;;17.70;88.90;;;;;;5047025;28;20342;-78
2023/09/22 02:32:23;;;;;;;;;;;17.70;88.90;;;;;;5062895;28;20008;-78
2023/09/22 02:34:50;;;;;;;;;;;17.70;89.00;;;;;;5065564;28;20676;-79
2023/09/22 02:37:27;;;;;;;;;;;17.60;88.90;;;;;;5061365;28;19939;-78
2023/09/22 02:39:54;;;;;;;;;;;17.60;88.90;;;;;;5063979;28;19933;-80
2023/09/22 02:42:20;;;;;;;;;;;17.60;89.00;;;;;;5077752;28;19932;-78
2023/09/22 02:44:47;;;;;;;;;;;17.60;89.00;;;;;;5063489;28;19935;-78
2023/09/22 02:47:14;;;;;;;;;;;17.60;88.90;;;;;;5062774;28;19928;-79
2023/09/22 02:49:43;;;;;;;;;;;17.50;88.90;;;;;;5064727;28;19939;-80
2023/09/22 02:52:09;;;;;;;;;;;17.50;89.00;;;;;;5064299;28;19925;-79
2023/09/22 02:54:37;;;;;;;;;;;17.50;88.90;;;;;;5045706;28;20065;-79
2023/09/22 02:57:04;;;;;;;;;;;17.50;88.90;;;;;;5077587;28;19979;-79
2023/09/22 02:59:31;;;;;;;;;;;17.60;89.10;;;;;;5063932;28;19963;-80
2023/09/22 03:01:58;;;;;;;;;;;17.50;88.90;;;;;;5061197;28;19928;-79
2023/09/22 03:04:25;;;;;;;;;;;17.40;88.90;;;;;;5046518;28;20318;-79
2023/09/22 03:06:53;;;;;;;;;;;17.40;88.90;;;;;;5063317;28;19932;-79
2023/09/22 03:09:19;;;;;;;;;;;17.50;89.00;;;;;;5060890;28;20039;-77
2023/09/22 03:11:46;;;;;;;;;;;17.40;89.00;;;;;;5062336;28;19933;-78
2023/09/22 03:14:13;;;;;;;;;;;17.40;88.90;;;;;;5050927;28;19928;-80
2023/09/22 03:16:42;;;;;;;;;;;17.40;88.90;;;;;;5065874;28;19940;-79
2023/09/22 03:19:09;;;;;;;;;;;17.40;88.90;;;;;;5046321;28;19932;-79
2023/09/22 03:21:36;;;;;;;;;;;17.40;89.00;;;;;;5044715;28;19928;-79
2023/09/22 03:24:05;;;;;;;;;;;17.40;89.00;;;;;;5063607;28;19928;-79
2023/09/22 03:26:31;;;;;;;;;;;17.30;88.90;;;;;;5045731;28;19976;-80
2023/09/22 03:29:00;;;;;;;;;;;17.30;88.90;;;;;;5047855;28;19976;-79
2023/09/22 03:31:26;;;;;;;;;;;17.30;89.00;;;;;;5064284;28;20744;-79
2023/09/22 03:33:53;;;;;;;;;;;17.30;89.00;;;;;;5066252;28;20023;-79
2023/09/22 03:36:20;;;;;;;;;;;17.30;89.00;;;;;;5060649;28;20418;-79
2023/09/22 03:38:47;;;;;;;;;;;17.30;89.00;;;;;;5060644;28;19928;-78
2023/09/22 03:41:18;;;;;;;;;;;17.30;89.00;;;;;;5066428;28;19924;-78
2023/09/22 03:43:44;;;;;;;;;;;17.30;89.00;;;;;;5061771;28;20394;-78
2023/09/22 03:46:11;;;;;;;;;;;17.30;89.20;;;;;;5060865;28;19940;-80
2023/09/22 03:48:38;;;;;;;;;;;17.30;89.10;;;;;;5050266;28;19928;-80
2023/09/22 03:51:04;;;;;;;;;;;17.20;89.00;;;;;;5062347;28;19928;-79
2023/09/22 03:53:31;;;;;;;;;;;17.20;89.00;;;;;;5065029;28;19932;-80
2023/09/22 03:55:58;;;;;;;;;;;17.20;89.00;;;;;;5065759;28;20050;-80
2023/09/22 03:58:26;;;;;;;;;;;17.20;89.10;;;;;;5045047;28;19934;-80
2023/09/22 04:01:03;;;;;;;;;;;17.20;89.10;;;;;;5064579;28;19928;-80
2023/09/22 04:03:30;;;;;;;;;;;17.20;89.10;;;;;;5059278;28;19929;-79
2023/09/22 04:05:56;;;;;;;;;;;17.10;89.00;;;;;;5046555;28;20044;-78
2023/09/22 04:08:24;;;;;;;;;;;17.10;89.00;;;;;;5052066;28;19929;-80
2023/09/22 04:10:51;;;;;;;;;;;17.10;89.00;;;;;;5061473;28;19967;-80
2023/09/22 04:13:18;;;;;;;;;;;17.10;89.10;;;;;;5062617;28;19929;-80
2023/09/22 04:15:46;;;;;;;;;;;17.10;89.10;;;;;;5065480;28;20248;-78
2023/09/22 04:18:14;;;;;;;;;;;17.10;89.10;;;;;;5065082;28;19929;-78
2023/09/22 04:20:44;;;;;;;;;;;17.10;89.10;;;;;;5050515;28;20043;-77
2023/09/22 04:23:10;;;;;;;;;;;17.00;89.10;;;;;;5065039;28;20409;-80
2023/09/22 04:25:37;;;;;;;;;;;17.00;89.10;;;;;;5044430;28;19929;-78
2023/09/22 04:28:09;;;;;;;;;;;17.00;89.10;;;;;;5046805;28;19932;-80
2023/09/22 04:30:36;;;;;;;;;;;17.00;89.10;;;;;;5045171;28;20027;-78
2023/09/22 04:33:05;;;;;;;;;;;17.00;89.20;;;;;;5063485;28;19936;-79
2023/09/22 04:35:32;;;;;;;;;;;17.00;89.10;;;;;;5060655;28;19959;-79
2023/09/22 04:37:59;;;;;;;;;;;17.00;89.20;;;;;;5060743;28;19972;-78
2023/09/22 04:40:29;;;;;;;;;;;17.00;89.20;;;;;;5063148;28;19940;-79
2023/09/22 04:42:56;;;;;;;;;;;16.90;89.10;;;;;;5064622;28;19971;-78
2023/09/22 04:45:23;;;;;;;;;;;16.90;89.20;;;;;;5060826;28;20493;-79
2023/09/22 04:47:51;;;;;;;;;;;16.90;89.20;;;;;;5066897;28;19939;-78
2023/09/22 04:50:21;;;;;;;;;;;16.90;89.20;;;;;;5065227;28;20222;-78
2023/09/22 04:52:49;;;;;;;;;;;16.90;89.20;;;;;;5065674;28;19932;-78
2023/09/22 04:55:16;;;;;;;;;;;16.90;89.30;;;;;;5065852;28;20387;-78
2023/09/22 04:57:43;;;;;;;;;;;16.90;89.30;;;;;;5069178;28;19936;-79
2023/09/22 05:00:15;;;;;;;;;;;16.90;89.30;;;;;;5048279;28;19935;-79
2023/09/22 05:02:43;;;;;;;;;;;16.90;89.30;;;;;;5066690;28;20033;-78
2023/09/22 05:05:10;;;;;;;;;;;16.80;89.30;;;;;;5062012;28;19928;-79
2023/09/22 05:07:39;;;;;;;;;;;16.80;89.30;;;;;;5065052;28;19933;-79
2023/09/22 05:10:06;;;;;;;;;;;16.80;89.30;;;;;;5045041;28;20575;-78
2023/09/22 05:12:32;;;;;;;;;;;16.80;89.30;;;;;;5065385;28;19933;-80
2023/09/22 05:15:00;;;;;;;;;;;16.80;89.30;;;;;;5069792;28;20356;-79
2023/09/22 05:17:27;;;;;;;;;;;16.80;89.40;;;;;;5078075;28;19928;-78
2023/09/22 05:19:54;;;;;;;;;;;16.80;89.40;;;;;;5063177;28;19928;-79
2023/09/22 05:22:21;;;;;;;;;;;16.80;89.40;;;;;;5064636;28;20446;-78
2023/09/22 05:24:49;;;;;;;;;;;16.80;89.40;;;;;;5067869;28;19929;-78
2023/09/22 05:27:16;;;;;;;;;;;16.70;89.50;;;;;;5045008;28;19959;-78
2023/09/22 05:29:45;;;;;;;;;;;16.70;89.50;;;;;;5062604;28;20021;-79
2023/09/22 05:32:12;;;;;;;;;;;16.70;89.50;;;;;;5065798;28;20426;-79
2023/09/22 05:34:39;;;;;;;;;;;16.70;89.60;;;;;;5065589;28;19928;-78
2023/09/22 05:37:06;;;;;;;;;;;16.70;89.60;;;;;;5066500;28;19997;-79
2023/09/22 05:39:33;;;;;;;;;;;16.70;90.00;;;;;;5066095;28;19932;-77
2023/09/22 05:42:01;;;;;;;;;;;16.70;89.70;;;;;;5060412;28;19928;-79
2023/09/22 05:44:28;;;;;;;;;;;16.70;89.70;;;;;;5067121;28;19933;-79
2023/09/22 05:46:58;;;;;;;;;;;16.70;89.70;;;;;;5053596;28;19979;-78
2023/09/22 05:49:27;;;;;;;;;;;16.70;89.80;;;;;;5062856;28;19932;-79
2023/09/22 05:51:54;;;;;;;;;;;16.70;89.80;;;;;;5079519;28;19963;-79
2023/09/22 05:54:21;;;;;;;;;;;16.60;89.80;;;;;;5065813;28;19929;-78
2023/09/22 05:56:48;;;;;;;;;;;16.60;89.80;;;;;;5064611;28;19959;-79
2023/09/22 05:59:37;;;;;;;;;;;16.70;89.90;;;;;;5063170;28;19936;-77
2023/09/22 06:02:05;;;;;;;;;;;16.60;89.80;;;;;;5061840;28;19932;-77
2023/09/22 06:04:32;;;;;;;;;;;16.60;89.80;;;;;;5062166;28;19928;-78
2023/09/22 06:06:59;;;;;;;;;;;16.60;89.90;;;;;;5063960;28;20421;-78
2023/09/22 06:09:25;;;;;;;;;;;16.60;89.90;;;;;;5063437;28;19928;-78
2023/09/22 06:11:52;;;;;;;;;;;16.60;89.90;;;;;;5066783;28;19932;-78
2023/09/22 06:14:20;;;;;;;;;;;16.60;89.90;;;;;;5047759;28;19932;-77
2023/09/22 06:16:49;;;;;;;;;;;16.60;89.90;;;;;;5064409;28;19928;-76
2023/09/22 06:19:16;;;;;;;;;;;16.60;89.90;;;;;;5043297;28;19929;-76
2023/09/22 06:21:46;;;;;;;;;;;16.60;90.00;;;;;;5055747;28;19935;-77
2023/09/22 06:24:12;;;;;;;;;;;16.60;90.00;;;;;;5067066;28;19928;-77
2023/09/22 06:26:39;;;;;;;;;;;16.60;90.00;;;;;;5060393;28;20860;-76
2023/09/22 06:29:07;;;;;;;;;;;16.60;89.90;;;;;;5065820;28;20011;-75
2023/09/22 06:31:36;;;;;;;;;;;16.60;89.90;;;;;;5042280;28;19932;-77
2023/09/22 06:34:03;;;;;;;;;;;16.60;89.90;;;;;;5062772;28;19928;-77
2023/09/22 06:36:30;;;;;;;;;;;16.60;89.90;;;;;;5063603;28;19932;-77
2023/09/22 06:38:56;;;;;;;;;;;16.60;90.00;;;;;;5060473;28;19936;-78
2023/09/22 06:41:23;;;;;;;;;;;16.60;90.00;;;;;;5060521;28;19929;-78
2023/09/22 06:43:50;;;;;;;;;;;16.60;90.00;;;;;;5044140;28;19939;-77
2023/09/22 06:46:19;;;;;;;;;;;16.50;89.90;;;;;;5062646;28;19928;-76
2023/09/22 06:48:47;;;;;;;;;;;16.60;90.00;;;;;;5062261;28;19929;-76
2023/09/22 06:51:16;;;;;;;;;;;16.50;90.00;;;;;;5057809;28;19934;-78
2023/09/22 06:53:43;;;;;;;;;;;16.60;90.00;;;;;;5048220;28;20039;-79
2023/09/22 06:56:09;;;;;;;;;;;16.50;89.90;;;;;;5046258;28;20365;-77
2023/09/22 06:58:37;;;;;;;;;;;16.60;89.90;;;;;;5063804;28;19928;-78
2023/09/22 07:01:09;;;;;;;;;;;16.60;89.90;;;;;;5058538;28;19932;-77
2023/09/22 07:03:35;;;;;;;;;;;16.50;89.90;;;;;;5064085;28;19924;-77
2023/09/22 07:06:05;;;;;;;;;;;16.60;89.90;;;;;;5063398;28;19929;-77
2023/09/22 07:08:34;;;;;;;;;;;16.50;89.90;;;;;;5066886;28;19932;-76
2023/09/22 07:11:01;;;;;;;;;;;16.50;89.90;;;;;;5059646;28;19932;-78
2023/09/22 07:13:29;;;;;;;;;;;16.50;89.90;;;;;;5045660;28;20220;-79
2023/09/22 07:15:56;;;;;;;;;;;16.50;89.80;;;;;;5063836;28;19979;-76
2023/09/22 07:18:24;;;;;;;;;;;16.50;89.80;;;;;;5064923;28;20211;-78
2023/09/22 07:20:50;;;;;;;;;;;16.60;89.80;;;;;;5066516;28;20131;-78
2023/09/22 07:23:18;;;;;;;;;;;16.50;89.70;;;;;;5064396;28;19929;-77
2023/09/22 07:25:46;;;;;;;;;;;16.50;89.70;;;;;;5044558;28;20006;-77
2023/09/22 07:28:13;;;;;;;;;;;16.50;89.60;;;;;;5051843;28;19944;-76
2023/09/22 07:30:40;;;;;;;;;;;16.50;89.80;;;;;;5051751;28;19928;-77
2023/09/22 07:33:09;;;;;;;;;;;16.50;89.70;;;;;;5081569;28;20023;-76
2023/09/22 07:35:35;;;;;;;;;;;16.50;89.60;;;;;;5050644;28;19933;-77
2023/09/22 07:38:02;;;;;;;;;;;16.50;89.60;;;;;;5067371;28;19924;-77
2023/09/22 07:40:30;;;;;;;;;;;16.50;89.70;;;;;;5066772;28;19932;-77
2023/09/22 07:42:57;;;;;;;;;;;16.50;89.60;;;;;;5064230;28;20042;-78
2023/09/22 07:45:24;;;;;;;;;;;16.50;89.60;;;;;;5068022;28;20030;-76
2023/09/22 07:47:52;;;;;;;;;;;16.50;89.50;;;;;;5069013;28;19959;-78
2023/09/22 07:50:20;;;;;;;;;;;16.50;90.10;;;;;;5064204;28;19986;-77
2023/09/22 07:52:46;;;;;;;;;;;16.50;89.60;;;;;;5069901;28;19933;-77
2023/09/22 07:55:15;;;;;;;;;;;16.50;89.60;;;;;;5046490;28;19982;-78
2023/09/22 07:57:47;;;;;;;;;;;16.60;89.80;;;;;;5046575;28;20011;-77
2023/09/22 08:00:17;;;;;;;;;;;16.50;89.70;;;;;;5066545;28;19928;-78
2023/09/22 08:02:45;;;;;;;;;;;16.50;89.70;;;;;;5065682;28;19936;-77
2023/09/22 08:05:15;;;;;;;;;;;16.50;89.70;;;;;;5064057;28;19928;-78
2023/09/22 08:07:43;;;;;;;;;;;16.50;89.80;;;;;;5063300;28;20391;-78
2023/09/22 08:10:11;;;;;;;;;;;16.50;89.80;;;;;;5040043;28;19936;-80
2023/09/22 08:12:38;;;;;;;;;;;16.50;89.70;;;;;;5065299;28;20313;-77
2023/09/22 08:15:08;;;;;;;;;;;16.60;89.80;;;;;;5044282;28;19932;-79
2023/09/22 08:17:35;;;;;;;;;;;16.50;89.80;;;;;;5047090;28;19933;-76
2023/09/22 08:20:01;;;;;;;;;;;16.50;89.80;;;;;;5061814;28;19952;-78
2023/09/22 08:22:28;;;;;;;;;;;16.60;89.80;;;;;;5069185;28;19928;-79
2023/09/22 08:24:56;;;;;;;;;;;16.50;89.40;;;;;;5067262;28;19928;-78
2023/09/22 08:27:23;;;;;;;;;;;16.50;89.50;;;;;;5068210;28;20442;-79
2023/09/22 08:29:50;;;;;;;;;;;16.60;89.50;;;;;;5071867;28;20093;-77
2023/09/22 08:32:18;;;;;;;;;;;16.50;89.40;;;;;;5053515;28;19928;-76
2023/09/22 08:34:46;;;;;;;;;;;16.60;89.50;;;;;;5050600;28;19974;-78
2023/09/22 08:37:12;;;;;;;;;;;16.60;89.40;;;;;;5073764;28;19932;-78
2023/09/22 08:39:39;;;;;;;;;;;16.50;89.20;;;;;;5071998;28;20970;-78
2023/09/22 08:42:06;;;;;;;;;;;16.50;89.10;;;;;;5052377;28;20147;-77
2023/09/22 08:44:33;;;;;;;;;;;16.60;89.20;;;;;;5056574;28;20616;-77
2023/09/22 08:47:00;;;;;;;;;;;16.50;89.10;;;;;;5073324;28;19947;-79
2023/09/22 08:49:28;;;;;;;;;;;16.60;89.70;;;;;;5070336;28;20030;-78
2023/09/22 08:51:55;;;;;;;;;;;16.60;88.90;;;;;;5072246;28;19933;-78
2023/09/22 08:54:22;;;;;;;;;;;16.60;88.80;;;;;;5070780;28;20441;-77
2023/09/22 08:56:48;;;;;;;;;;;16.60;88.80;;;;;;5065755;28;19935;-78
2023/09/22 08:59:15;;;;;;;;;;;16.70;88.90;;;;;;5071425;28;19933;-77
2023/09/22 09:01:42;;;;;;;;;;;16.70;88.90;;;;;;5082344;28;19928;-78
2023/09/22 09:04:27;;;;;;;;;;;16.70;88.80;;;;;;5075920;28;19939;-79
2023/09/22 09:06:56;;;;;;;;;;;16.70;88.60;;;;;;5089942;28;19928;-77
2023/09/22 09:09:22;;;;;;;;;;;16.70;88.50;;;;;;5070116;28;20005;-77
2023/09/22 09:11:58;;;;;;;;;;;16.70;88.50;;;;;;5068400;28;19928;-77
2023/09/22 09:14:28;;;;;;;;;;;16.80;88.50;;;;;;5053872;28;19928;-78
2023/09/22 09:16:56;;;;;;;;;;;16.80;88.50;;;;;;5059586;28;20196;-77
2023/09/22 09:19:22;;;;;;;;;;;16.80;88.50;;;;;;5071580;28;20433;-79
2023/09/22 09:22:08;;;;;;;;;;;16.80;88.30;;;;;;5071826;28;19935;-77
2023/09/22 09:24:35;;;;;;;;;;;16.80;88.30;;;;;;5053324;28;19928;-78
2023/09/22 09:27:14;;;;;;;;;;;16.80;88.30;;;;;;5069613;28;19932;-76
2023/09/22 09:29:41;;;;;;;;;;;16.80;88.40;;;;;;5065130;28;20585;-76
2023/09/22 09:32:08;;;;;;;;;;;16.80;88.40;;;;;;5049553;28;19932;-77
2023/09/22 09:34:39;;;;;;;;;;;16.90;88.50;;;;;;5072608;28;19939;-77
2023/09/22 09:37:13;;;;;;;;;;;16.90;88.50;;;;;;5070938;28;20060;-78
2023/09/22 09:39:43;;;;;;;;;;;16.90;88.40;;;;;;5066391;28;19935;-78
2023/09/22 09:42:10;;;;;;;;;;;16.90;88.40;;;;;;5050093;28;19939;-78
2023/09/22 09:44:40;;;;;;;;;;;16.90;88.40;;;;;;5084183;28;19936;-78
2023/09/22 09:47:07;;;;;;;;;;;16.90;88.50;;;;;;5069012;28;19939;-77
2023/09/22 09:49:34;;;;;;;;;;;16.90;88.50;;;;;;5069463;28;20442;-78
2023/09/22 09:52:03;;;;;;;;;;;17.00;88.70;;;;;;5064394;28;19935;-76
2023/09/22 09:54:33;;;;;;;;;;;17.00;88.80;;;;;;5067109;28;20409;-78
2023/09/22 09:57:00;;;;;;;;;;;17.00;88.80;;;;;;5068646;28;19928;-76
2023/09/22 09:59:27;;;;;;;;;;;17.00;88.80;;;;;;5068908;28;19933;-79
2023/09/22 10:01:54;;;;;;;;;;;17.00;88.80;;;;;;5068591;28;20310;-78
2023/09/22 10:04:22;;;;;;;;;;;17.00;88.90;;;;;;5071610;28;19929;-78
2023/09/22 10:06:52;;;;;;;;;;;17.10;88.90;;;;;;5065966;28;19943;-78
2023/09/22 10:09:19;;;;;;;;;;;17.10;88.90;;;;;;5067782;28;19931;-79
2023/09/22 10:11:48;;;;;;;;;;;17.20;88.60;;;;;;5068709;28;19932;-77
2023/09/22 10:14:29;;;;;;;;;;;17.30;88.80;;;;;;5072128;28;19936;-78
2023/09/22 10:16:56;;;;;;;;;;;17.60;87.00;;;;;;5070118;28;20409;-78
2023/09/22 10:19:38;;;;;;;;;;;17.80;86.80;;;;;;5066700;28;19928;-77
2023/09/22 10:22:11;;;;;;;;;;;17.90;86.90;;;;;;5066314;28;19928;-77
2023/09/22 10:24:38;;;;;;;;;;;18.00;87.00;;;;;;5068236;28;20323;-80
2023/09/22 10:27:16;;;;;;;;;;;18.00;86.90;;;;;;5081768;28;19928;-79
2023/09/22 10:29:53;;;;;;;;;;;18.10;86.50;;;;;;5069836;28;19925;-79
2023/09/22 10:32:29;;;;;;;;;;;18.10;86.40;;;;;;5068870;28;19964;-79
2023/09/22 10:34:57;;;;;;;;;;;18.20;86.50;;;;;;5058700;28;19932;-80
2023/09/22 10:37:26;;;;;;;;;;;18.20;86.10;;;;;;5074110;28;19963;-80
2023/09/22 10:39:53;;;;;;;;;;;18.30;85.90;;;;;;5056885;28;19931;-78
2023/09/22 10:42:21;;;;;;;;;;;18.30;85.90;;;;;;5058923;28;20255;-80
2023/09/22 10:44:54;;;;;;;;;;;18.30;85.90;;;;;;5074040;28;19936;-80
2023/09/22 10:47:21;;;;;;;;;;;18.40;85.80;;;;;;5073159;28;19928;-80
2023/09/22 10:49:48;;;;;;;;;;;18.50;85.50;;;;;;5073190;28;19928;-78
2023/09/22 10:52:17;;;;;;;;;;;18.50;85.50;;;;;;5070144;28;20040;-79
2023/09/22 10:54:47;;;;;;;;;;;18.60;85.60;;;;;;5075841;28;19928;-79
2023/09/22 10:57:24;;;;;;;;;;;18.60;85.00;;;;;;5041112;28;19933;-79
2023/09/22 10:59:53;;;;;;;;;;;18.70;84.80;;;;;;5053993;28;22252;-79
2023/09/22 11:02:26;;;;;;;;;;;18.70;84.50;;;;;;5074974;28;19928;-80
2023/09/22 11:04:56;;;;;;;;;;;18.80;84.50;;;;;;5070199;28;19929;-77
2023/09/22 11:07:32;;;;;;;;;;;18.80;84.20;;;;;;5069331;28;20176;-80
2023/09/22 11:09:59;;;;;;;;;;;18.90;84.20;;;;;;5079618;28;19940;-79
2023/09/22 11:12:27;;;;;;;;;;;18.90;83.70;;;;;;5068511;28;19928;-79
2023/09/22 11:14:54;;;;;;;;;;;19.00;83.70;;;;;;5072401;28;19951;-78
2023/09/22 11:17:22;;;;;;;;;;;19.00;83.80;;;;;;5067575;28;19935;-78
2023/09/22 11:19:52;;;;;;;;;;;19.10;83.70;;;;;;5055143;28;19935;-78
2023/09/22 11:22:19;;;;;;;;;;;19.10;82.80;;;;;;5081054;28;19928;-79
2023/09/22 11:24:46;;;;;;;;;;;19.10;82.90;;;;;;5056256;28;19935;-79
2023/09/22 11:27:17;;;;;;;;;;;19.20;83.30;;;;;;5068580;28;20487;-79
2023/09/22 11:29:45;;;;;;;;;;;19.20;82.70;;;;;;5068611;28;20582;-78
2023/09/22 11:32:12;;;;;;;;;;;19.20;83.10;;;;;;5070776;28;19929;-79
2023/09/22 11:34:46;;;;;;;;;;;19.30;82.70;;;;;;5073787;28;19927;-79
2023/09/22 11:37:12;;;;;;;;;;;19.30;82.30;;;;;;5074030;28;19939;-80
2023/09/22 11:39:39;;;;;;;;;;;19.30;82.20;;;;;;5060073;28;20192;-78
2023/09/22 11:42:06;;;;;;;;;;;19.40;81.20;;;;;;5048252;28;19935;-78
2023/09/22 11:44:33;;;;;;;;;;;19.50;80.90;;;;;;5077155;28;19928;-78
2023/09/22 11:47:02;;;;;;;;;;;19.50;80.20;;;;;;5070957;28;20470;-79
2023/09/22 11:49:36;;;;;;;;;;;19.50;80.50;;;;;;5069071;28;19932;-80
2023/09/22 11:52:03;;;;;;;;;;;19.60;78.80;;;;;;5072893;28;20389;-77
2023/09/22 11:54:32;;;;;;;;;;;19.70;78.20;;;;;;5071040;28;19932;-79
2023/09/22 11:57:00;;;;;;;;;;;19.70;78.60;;;;;;5068922;28;20658;-80
2023/09/22 11:59:27;;;;;;;;;;;19.70;78.40;;;;;;5072591;28;20051;-78
2023/09/22 12:01:55;;;;;;;;;;;19.80;78.00;;;;;;5069909;28;19934;-79
2023/09/22 12:04:25;;;;;;;;;;;19.80;78.60;;;;;;5074251;28;20653;-79
2023/09/22 12:06:52;;;;;;;;;;;19.80;78.30;;;;;;5068966;28;19931;-78
2023/09/22 12:09:19;;;;;;;;;;;19.80;77.00;;;;;;5068146;28;19929;-78
2023/09/22 12:11:46;;;;;;;;;;;19.80;77.60;;;;;;5069303;28;19928;-77
2023/09/22 12:14:13;;;;;;;;;;;19.80;79.40;;;;;;5069287;28;19931;-77
2023/09/22 12:16:40;;;;;;;;;;;19.80;79.40;;;;;;5068366;28;19943;-78
2023/09/22 12:19:07;;;;;;;;;;;19.70;77.90;;;;;;5066431;28;20374;-78
2023/09/22 12:21:36;;;;;;;;;;;19.70;79.30;;;;;;5071993;28;19928;-78
2023/09/22 12:24:02;;;;;;;;;;;19.70;79.50;;;;;;5073160;28;19938;-79
2023/09/22 12:26:30;;;;;;;;;;;19.70;79.20;;;;;;5072916;28;20033;-77
2023/09/22 12:28:57;;;;;;;;;;;19.70;79.20;;;;;;5052968;28;20558;-78
2023/09/22 12:31:24;;;;;;;;;;;19.70;79.10;;;;;;5072587;28;19980;-78
2023/09/22 12:33:51;;;;;;;;;;;19.60;80.40;;;;;;5069975;28;20401;-79
2023/09/22 12:36:17;;;;;;;;;;;19.60;79.60;;;;;;5070407;28;19928;-78
2023/09/22 12:38:46;;;;;;;;;;;19.60;79.30;;;;;;5054886;28;19994;-78
2023/09/22 12:41:13;;;;;;;;;;;19.70;80.00;;;;;;5069633;28;19936;-79
2023/09/22 12:43:40;;;;;;;;;;;19.70;80.30;;;;;;5054997;28;19935;-79
2023/09/22 12:46:09;;;;;;;;;;;19.80;78.90;;;;;;5073712;28;19935;-78
2023/09/22 12:48:39;;;;;;;;;;;19.80;80.20;;;;;;5065541;28;19929;-77
2023/09/22 12:51:06;;;;;;;;;;;19.90;79.60;;;;;;5065834;28;19928;-77
2023/09/22 12:53:33;;;;;;;;;;;19.90;79.60;;;;;;5074612;28;19928;-77
2023/09/22 12:56:01;;;;;;;;;;;20.00;79.80;;;;;;5071631;28;19928;-78
2023/09/22 12:58:28;;;;;;;;;;;20.10;79.40;;;;;;5070967;28;19939;-80
2023/09/22 13:00:56;;;;;;;;;;;20.10;79.70;;;;;;5068437;28;19928;-78
2023/09/22 13:03:23;;;;;;;;;;;20.20;79.20;;;;;;5072752;28;20256;-79
2023/09/22 13:05:49;;;;;;;;;;;20.20;79.20;;;;;;5054812;28;19951;-78
2023/09/22 13:08:17;;;;;;;;;;;20.30;77.80;;;;;;5073593;28;20395;-77
2023/09/22 13:10:44;;;;;;;;;;;20.40;77.40;;;;;;5073152;28;19932;-79
2023/09/22 13:13:13;;;;;;;;;;;20.40;78.00;;;;;;5074078;28;19932;-77
2023/09/22 13:15:44;;;;;;;;;;;20.50;77.00;;;;;;5086895;28;19935;-78
2023/09/22 13:18:11;;;;;;;;;;;20.50;76.90;;;;;;5071160;28;19936;-79
2023/09/22 13:20:47;;;;;;;;;;;20.60;77.90;;;;;;5087587;28;19928;-79
2023/09/22 13:23:15;;;;;;;;;;;20.70;78.50;;;;;;5073866;28;19925;-78
2023/09/22 13:25:42;;;;;;;;;;;20.80;77.10;;;;;;5078997;28;19928;-78
2023/09/22 13:28:09;;;;;;;;;;;20.80;76.80;;;;;;5072937;28;19936;-79
2023/09/22 13:30:39;;;;;;;;;;;20.80;75.10;;;;;;5074133;28;19928;-79
2023/09/22 13:33:06;;;;;;;;;;;20.90;75.10;;;;;;5085026;28;19928;-77
2023/09/22 13:35:33;;;;;;;;;;;21.00;75.50;;;;;;5074381;28;19929;-79
2023/09/22 13:38:00;;;;;;;;;;;21.00;74.90;;;;;;5072841;28;20670;-78
2023/09/22 13:40:30;;;;;;;;;;;21.00;74.20;;;;;;5053776;28;20005;-80
2023/09/22 13:42:58;;;;;;;;;;;21.10;74.70;;;;;;5052615;28;20427;-78
2023/09/22 13:45:25;;;;;;;;;;;21.10;73.80;;;;;;5052399;28;20027;-79
2023/09/22 13:47:53;;;;;;;;;;;21.20;74.10;;;;;;5073999;28;20031;-79
2023/09/22 13:50:20;;;;;;;;;;;21.20;74.20;;;;;;5074025;28;19934;-79
2023/09/22 13:52:46;;;;;;;;;;;21.20;74.30;;;;;;5062965;28;19925;-79
2023/09/22 13:55:13;;;;;;;;;;;21.30;74.50;;;;;;5068225;28;20504;-77
2023/09/22 13:57:41;;;;;;;;;;;21.30;72.70;;;;;;5070225;28;19935;-78
2023/09/22 14:00:10;;;;;;;;;;;21.30;73.20;;;;;;5077212;28;19950;-78
2023/09/22 14:02:37;;;;;;;;;;;21.40;74.00;;;;;;5065238;28;20044;-77
2023/09/22 14:05:06;;;;;;;;;;;21.30;73.80;;;;;;5067907;28;19936;-78
2023/09/22 14:07:33;;;;;;;;;;;21.40;74.60;;;;;;5070693;28;19929;-77
2023/09/22 14:10:00;;;;;;;;;;;21.40;75.00;;;;;;5051062;28;20011;-79
2023/09/22 14:12:27;;;;;;;;;;;21.40;72.80;;;;;;5046602;28;19929;-79
2023/09/22 14:14:55;;;;;;;;;;;21.30;74.40;;;;;;5071082;28;19935;-78
2023/09/22 14:17:22;;;;;;;;;;;21.30;74.70;;;;;;5064987;28;20523;-79
2023/09/22 14:19:49;;;;;;;;;;;21.30;75.00;;;;;;5066256;28;20751;-79
2023/09/22 14:22:17;;;;;;;;;;;21.20;71.60;;;;;;5069585;28;19936;-79